sensor_id;sensor_type;location;lat;lon;timestamp;P1;durP1;ratioP1;P2;durP2;ratioP2
7529;SDS011;3806;52.270;10.544;2023-04-25T00:00:28;8.13;;;2.78;;
7529;SDS011;3806;52.270;10.544;2023-04-25T00:02:54;4.85;;;2.38;;
7529;SDS011;3806;52.270;10.544;2023-04-25T00:05:25;8.73;;;3.45;;
7529;SDS011;3806;52.270;10.544;2023-04-25T00:07:52;5.45;;;2.40;;
7529;SDS011;3806;52.270;10.544;2023-04-25T00:10:19;6.45;;;3.00;;
7529;SDS011;3806;52.270;10.544;2023-04-25T00:12:45;5.93;;;2.90;;
7529;SDS011;3806;52.270;10.544;2023-04-25T00:15:11;3.55;;;2.92;;
7529;SDS011;3806;52.270;10.544;2023-04-25T00:17:37;5.70;;;2.63;;
7529;SDS011;3806;52.270;10.544;2023-04-25T00:20:03;4.53;;;2.42;;
7529;SDS011;3806;52.270;10.544;2023-04-25T00:22:30;9.52;;;3.70;;
7529;SDS011;3806;52.270;10.544;2023-04-25T00:24:56;4.65;;;2.70;;
7529;SDS011;3806;52.270;10.544;2023-04-25T00:27:25;7.35;;;2.72;;
7529;SDS011;3806;52.270;10.544;2023-04-25T00:29:51;8.02;;;2.80;;
7529;SDS011;3806;52.270;10.544;2023-04-25T00:32:17;5.45;;;3.15;;
7529;SDS011;3806;52.270;10.544;2023-04-25T00:34:43;6.63;;;2.42;;
7529;SDS011;3806;52.270;10.544;2023-04-25T00:37:09;7.45;;;3.20;;
7529;SDS011;3806;52.270;10.544;2023-04-25T00:39:35;9.32;;;3.10;;
7529;SDS011;3806;52.270;10.544;2023-04-25T00:42:02;7.63;;;2.92;;
7529;SDS011;3806;52.270;10.544;2023-04-25T00:44:30;7.85;;;2.83;;
7529;SDS011;3806;52.270;10.544;2023-04-25T00:46:57;6.57;;;3.10;;
7529;SDS011;3806;52.270;10.544;2023-04-25T00:49:23;7.25;;;2.70;;
7529;SDS011;3806;52.270;10.544;2023-04-25T00:51:49;8.48;;;3.00;;
7529;SDS011;3806;52.270;10.544;2023-04-25T00:54:15;8.07;;;3.20;;
7529;SDS011;3806;52.270;10.544;2023-04-25T00:56:41;9.45;;;3.40;;
7529;SDS011;3806;52.270;10.544;2023-04-25T00:59:08;10.20;;;3.13;;
7529;SDS011;3806;52.270;10.544;2023-04-25T01:01:34;7.13;;;2.72;;
7529;SDS011;3806;52.270;10.544;2023-04-25T01:04:01;9.32;;;2.90;;
7529;SDS011;3806;52.270;10.544;2023-04-25T01:06:27;4.53;;;2.40;;
7529;SDS011;3806;52.270;10.544;2023-04-25T01:08:53;7.80;;;3.30;;
7529;SDS011;3806;52.270;10.544;2023-04-25T01:11:20;9.13;;;2.90;;
7529;SDS011;3806;52.270;10.544;2023-04-25T01:13:46;7.18;;;3.20;;
7529;SDS011;3806;52.270;10.544;2023-04-25T01:16:12;7.70;;;3.38;;
7529;SDS011;3806;52.270;10.544;2023-04-25T01:18:38;7.20;;;3.03;;
7529;SDS011;3806;52.270;10.544;2023-04-25T01:21:09;8.18;;;2.65;;
7529;SDS011;3806;52.270;10.544;2023-04-25T01:23:41;5.68;;;2.33;;
7529;SDS011;3806;52.270;10.544;2023-04-25T01:26:11;6.45;;;2.67;;
7529;SDS011;3806;52.270;10.544;2023-04-25T01:28:37;10.05;;;4.07;;
7529;SDS011;3806;52.270;10.544;2023-04-25T01:31:06;10.05;;;3.53;;
7529;SDS011;3806;52.270;10.544;2023-04-25T01:33:33;7.82;;;2.92;;
7529;SDS011;3806;52.270;10.544;2023-04-25T01:36:00;5.07;;;2.47;;
7529;SDS011;3806;52.270;10.544;2023-04-25T01:38:26;10.35;;;3.20;;
7529;SDS011;3806;52.270;10.544;2023-04-25T01:40:52;5.55;;;2.50;;
7529;SDS011;3806;52.270;10.544;2023-04-25T01:43:19;10.07;;;3.42;;
7529;SDS011;3806;52.270;10.544;2023-04-25T01:45:45;4.78;;;2.80;;
7529;SDS011;3806;52.270;10.544;2023-04-25T01:48:13;8.10;;;4.18;;
7529;SDS011;3806;52.270;10.544;2023-04-25T01:50:39;3.75;;;2.42;;
7529;SDS011;3806;52.270;10.544;2023-04-25T01:53:06;8.02;;;3.05;;
7529;SDS011;3806;52.270;10.544;2023-04-25T01:55:33;16.38;;;3.75;;
7529;SDS011;3806;52.270;10.544;2023-04-25T01:58:00;5.93;;;2.80;;
7529;SDS011;3806;52.270;10.544;2023-04-25T02:00:27;5.70;;;2.95;;
7529;SDS011;3806;52.270;10.544;2023-04-25T02:02:53;8.48;;;3.65;;
7529;SDS011;3806;52.270;10.544;2023-04-25T02:05:23;8.40;;;3.83;;
7529;SDS011;3806;52.270;10.544;2023-04-25T02:07:48;8.00;;;3.97;;
7529;SDS011;3806;52.270;10.544;2023-04-25T02:10:14;5.03;;;3.03;;
7529;SDS011;3806;52.270;10.544;2023-04-25T02:12:41;6.53;;;3.05;;
7529;SDS011;3806;52.270;10.544;2023-04-25T02:15:08;8.68;;;3.78;;
7529;SDS011;3806;52.270;10.544;2023-04-25T02:17:33;8.82;;;3.05;;
7529;SDS011;3806;52.270;10.544;2023-04-25T02:19:59;10.63;;;3.40;;
7529;SDS011;3806;52.270;10.544;2023-04-25T02:22:25;8.93;;;2.85;;
7529;SDS011;3806;52.270;10.544;2023-04-25T02:24:54;8.30;;;3.67;;
7529;SDS011;3806;52.270;10.544;2023-04-25T02:27:20;9.48;;;4.00;;
7529;SDS011;3806;52.270;10.544;2023-04-25T02:29:46;8.23;;;3.35;;
7529;SDS011;3806;52.270;10.544;2023-04-25T02:32:12;7.22;;;3.75;;
7529;SDS011;3806;52.270;10.544;2023-04-25T02:34:37;9.60;;;3.65;;
7529;SDS011;3806;52.270;10.544;2023-04-25T02:37:03;5.07;;;3.40;;
7529;SDS011;3806;52.270;10.544;2023-04-25T02:39:29;9.45;;;3.90;;
7529;SDS011;3806;52.270;10.544;2023-04-25T02:41:55;8.52;;;3.83;;
7529;SDS011;3806;52.270;10.544;2023-04-25T02:44:21;6.80;;;4.07;;
7529;SDS011;3806;52.270;10.544;2023-04-25T02:46:47;11.02;;;4.05;;
7529;SDS011;3806;52.270;10.544;2023-04-25T02:49:12;8.65;;;3.72;;
7529;SDS011;3806;52.270;10.544;2023-04-25T02:51:38;6.25;;;3.65;;
7529;SDS011;3806;52.270;10.544;2023-04-25T02:54:04;10.23;;;4.05;;
7529;SDS011;3806;52.270;10.544;2023-04-25T02:56:31;6.78;;;3.53;;
7529;SDS011;3806;52.270;10.544;2023-04-25T02:58:58;9.13;;;4.45;;
7529;SDS011;3806;52.270;10.544;2023-04-25T03:01:24;5.85;;;4.00;;
7529;SDS011;3806;52.270;10.544;2023-04-25T03:03:50;10.43;;;4.20;;
7529;SDS011;3806;52.270;10.544;2023-04-25T03:06:16;6.00;;;3.47;;
7529;SDS011;3806;52.270;10.544;2023-04-25T03:08:41;10.82;;;4.22;;
7529;SDS011;3806;52.270;10.544;2023-04-25T03:11:07;11.38;;;4.20;;
7529;SDS011;3806;52.270;10.544;2023-04-25T03:13:33;9.50;;;4.15;;
7529;SDS011;3806;52.270;10.544;2023-04-25T03:15:59;6.68;;;3.88;;
7529;SDS011;3806;52.270;10.544;2023-04-25T03:18:25;6.22;;;4.28;;
7529;SDS011;3806;52.270;10.544;2023-04-25T03:20:51;7.18;;;3.83;;
7529;SDS011;3806;52.270;10.544;2023-04-25T03:23:17;14.50;;;4.50;;
7529;SDS011;3806;52.270;10.544;2023-04-25T03:25:43;8.18;;;4.03;;
7529;SDS011;3806;52.270;10.544;2023-04-25T03:28:09;6.50;;;4.07;;
7529;SDS011;3806;52.270;10.544;2023-04-25T03:30:34;9.02;;;4.00;;
7529;SDS011;3806;52.270;10.544;2023-04-25T03:33:00;9.20;;;3.90;;
7529;SDS011;3806;52.270;10.544;2023-04-25T03:35:26;10.68;;;4.65;;
7529;SDS011;3806;52.270;10.544;2023-04-25T03:37:52;8.23;;;5.65;;
7529;SDS011;3806;52.270;10.544;2023-04-25T03:40:19;8.02;;;4.28;;
7529;SDS011;3806;52.270;10.544;2023-04-25T03:42:44;7.55;;;5.00;;
7529;SDS011;3806;52.270;10.544;2023-04-25T03:45:11;9.77;;;4.22;;
7529;SDS011;3806;52.270;10.544;2023-04-25T03:47:36;8.80;;;4.25;;
7529;SDS011;3806;52.270;10.544;2023-04-25T03:50:03;8.20;;;4.40;;
7529;SDS011;3806;52.270;10.544;2023-04-25T03:52:28;7.68;;;3.97;;
7529;SDS011;3806;52.270;10.544;2023-04-25T03:54:54;7.95;;;3.70;;
7529;SDS011;3806;52.270;10.544;2023-04-25T03:57:20;6.82;;;3.78;;
7529;SDS011;3806;52.270;10.544;2023-04-25T03:59:46;8.63;;;3.90;;
7529;SDS011;3806;52.270;10.544;2023-04-25T04:02:13;12.48;;;4.20;;
7529;SDS011;3806;52.270;10.544;2023-04-25T04:04:38;6.65;;;3.00;;
7529;SDS011;3806;52.270;10.544;2023-04-25T04:07:03;11.45;;;3.10;;
7529;SDS011;3806;52.270;10.544;2023-04-25T04:09:29;8.45;;;2.67;;
7529;SDS011;3806;52.270;10.544;2023-04-25T04:11:56;10.23;;;2.58;;
7529;SDS011;3806;52.270;10.544;2023-04-25T04:14:21;8.05;;;3.42;;
7529;SDS011;3806;52.270;10.544;2023-04-25T04:16:47;11.70;;;2.70;;
7529;SDS011;3806;52.270;10.544;2023-04-25T04:19:13;7.85;;;2.75;;
7529;SDS011;3806;52.270;10.544;2023-04-25T04:21:39;6.40;;;3.10;;
7529;SDS011;3806;52.270;10.544;2023-04-25T04:24:06;12.40;;;3.20;;
7529;SDS011;3806;52.270;10.544;2023-04-25T04:26:32;10.32;;;2.65;;
7529;SDS011;3806;52.270;10.544;2023-04-25T04:28:59;11.75;;;2.67;;
7529;SDS011;3806;52.270;10.544;2023-04-25T04:31:26;8.85;;;2.78;;
7529;SDS011;3806;52.270;10.544;2023-04-25T04:33:51;4.95;;;2.10;;
7529;SDS011;3806;52.270;10.544;2023-04-25T04:36:17;9.55;;;2.28;;
7529;SDS011;3806;52.270;10.544;2023-04-25T04:38:47;7.75;;;2.13;;
7529;SDS011;3806;52.270;10.544;2023-04-25T04:41:12;14.10;;;3.83;;
7529;SDS011;3806;52.270;10.544;2023-04-25T04:43:38;8.00;;;2.47;;
7529;SDS011;3806;52.270;10.544;2023-04-25T04:46:05;10.32;;;3.20;;
7529;SDS011;3806;52.270;10.544;2023-04-25T04:48:31;11.05;;;2.70;;
7529;SDS011;3806;52.270;10.544;2023-04-25T04:51:01;8.88;;;2.60;;
7529;SDS011;3806;52.270;10.544;2023-04-25T04:53:26;9.15;;;3.55;;
7529;SDS011;3806;52.270;10.544;2023-04-25T04:55:52;8.35;;;2.78;;
7529;SDS011;3806;52.270;10.544;2023-04-25T04:58:18;12.48;;;2.95;;
7529;SDS011;3806;52.270;10.544;2023-04-25T05:00:44;5.75;;;2.60;;
7529;SDS011;3806;52.270;10.544;2023-04-25T05:03:10;11.45;;;3.10;;
7529;SDS011;3806;52.270;10.544;2023-04-25T05:05:36;7.22;;;2.92;;
7529;SDS011;3806;52.270;10.544;2023-04-25T05:08:05;13.93;;;3.20;;
7529;SDS011;3806;52.270;10.544;2023-04-25T05:10:31;9.15;;;3.22;;
7529;SDS011;3806;52.270;10.544;2023-04-25T05:12:56;9.90;;;2.45;;
7529;SDS011;3806;52.270;10.544;2023-04-25T05:15:22;8.35;;;2.83;;
7529;SDS011;3806;52.270;10.544;2023-04-25T05:17:47;14.40;;;3.45;;
7529;SDS011;3806;52.270;10.544;2023-04-25T05:20:13;8.10;;;2.30;;
7529;SDS011;3806;52.270;10.544;2023-04-25T05:22:39;13.98;;;3.13;;
7529;SDS011;3806;52.270;10.544;2023-04-25T05:25:06;10.63;;;3.42;;
7529;SDS011;3806;52.270;10.544;2023-04-25T05:27:32;12.15;;;2.90;;
7529;SDS011;3806;52.270;10.544;2023-04-25T05:29:59;11.95;;;2.30;;
7529;SDS011;3806;52.270;10.544;2023-04-25T05:32:25;9.70;;;2.60;;
7529;SDS011;3806;52.270;10.544;2023-04-25T05:34:51;9.65;;;3.25;;
7529;SDS011;3806;52.270;10.544;2023-04-25T05:37:17;14.68;;;3.85;;
7529;SDS011;3806;52.270;10.544;2023-04-25T05:39:42;8.05;;;2.53;;
7529;SDS011;3806;52.270;10.544;2023-04-25T05:42:09;12.05;;;3.22;;
7529;SDS011;3806;52.270;10.544;2023-04-25T05:44:35;8.50;;;2.58;;
7529;SDS011;3806;52.270;10.544;2023-04-25T05:47:01;12.70;;;2.65;;
7529;SDS011;3806;52.270;10.544;2023-04-25T05:49:27;9.18;;;2.20;;
7529;SDS011;3806;52.270;10.544;2023-04-25T05:51:52;9.60;;;3.17;;
7529;SDS011;3806;52.270;10.544;2023-04-25T05:54:19;6.22;;;2.72;;
7529;SDS011;3806;52.270;10.544;2023-04-25T05:56:44;8.95;;;2.97;;
7529;SDS011;3806;52.270;10.544;2023-04-25T05:59:10;6.63;;;3.30;;
7529;SDS011;3806;52.270;10.544;2023-04-25T06:01:35;11.98;;;3.92;;
7529;SDS011;3806;52.270;10.544;2023-04-25T06:04:01;13.10;;;2.50;;
7529;SDS011;3806;52.270;10.544;2023-04-25T06:06:26;17.83;;;3.78;;
7529;SDS011;3806;52.270;10.544;2023-04-25T06:08:52;8.60;;;2.63;;
7529;SDS011;3806;52.270;10.544;2023-04-25T06:11:18;17.33;;;3.22;;
7529;SDS011;3806;52.270;10.544;2023-04-25T06:13:43;10.55;;;2.25;;
7529;SDS011;3806;52.270;10.544;2023-04-25T06:16:09;10.70;;;2.08;;
7529;SDS011;3806;52.270;10.544;2023-04-25T06:18:34;7.80;;;2.58;;
7529;SDS011;3806;52.270;10.544;2023-04-25T06:21:00;7.72;;;2.35;;
7529;SDS011;3806;52.270;10.544;2023-04-25T06:23:25;10.82;;;2.28;;
7529;SDS011;3806;52.270;10.544;2023-04-25T06:25:51;3.90;;;2.15;;
7529;SDS011;3806;52.270;10.544;2023-04-25T06:28:16;8.80;;;2.88;;
7529;SDS011;3806;52.270;10.544;2023-04-25T06:30:42;4.45;;;2.25;;
7529;SDS011;3806;52.270;10.544;2023-04-25T06:33:07;9.02;;;2.97;;
7529;SDS011;3806;52.270;10.544;2023-04-25T06:35:33;7.32;;;2.20;;
7529;SDS011;3806;52.270;10.544;2023-04-25T06:37:59;11.63;;;2.40;;
7529;SDS011;3806;52.270;10.544;2023-04-25T06:40:25;11.43;;;3.00;;
7529;SDS011;3806;52.270;10.544;2023-04-25T06:42:50;8.50;;;2.15;;
7529;SDS011;3806;52.270;10.544;2023-04-25T06:45:16;7.45;;;2.00;;
7529;SDS011;3806;52.270;10.544;2023-04-25T06:47:41;14.63;;;3.13;;
7529;SDS011;3806;52.270;10.544;2023-04-25T06:50:07;12.68;;;2.63;;
7529;SDS011;3806;52.270;10.544;2023-04-25T06:52:33;8.23;;;2.08;;
7529;SDS011;3806;52.270;10.544;2023-04-25T06:54:58;7.30;;;2.05;;
7529;SDS011;3806;52.270;10.544;2023-04-25T06:57:23;9.93;;;3.20;;
7529;SDS011;3806;52.270;10.544;2023-04-25T06:59:49;10.57;;;2.03;;
7529;SDS011;3806;52.270;10.544;2023-04-25T07:02:15;11.70;;;2.40;;
7529;SDS011;3806;52.270;10.544;2023-04-25T07:04:40;8.95;;;2.45;;
7529;SDS011;3806;52.270;10.544;2023-04-25T07:07:06;6.80;;;2.15;;
7529;SDS011;3806;52.270;10.544;2023-04-25T07:09:32;8.73;;;1.70;;
7529;SDS011;3806;52.270;10.544;2023-04-25T07:12:01;6.00;;;2.10;;
7529;SDS011;3806;52.270;10.544;2023-04-25T07:14:26;6.53;;;2.13;;
7529;SDS011;3806;52.270;10.544;2023-04-25T07:16:52;4.65;;;1.75;;
7529;SDS011;3806;52.270;10.544;2023-04-25T07:19:18;5.15;;;2.35;;
7529;SDS011;3806;52.270;10.544;2023-04-25T07:21:43;7.82;;;1.70;;
7529;SDS011;3806;52.270;10.544;2023-04-25T07:24:09;4.72;;;1.50;;
7529;SDS011;3806;52.270;10.544;2023-04-25T07:26:34;8.65;;;1.50;;
7529;SDS011;3806;52.270;10.544;2023-04-25T07:29:00;6.38;;;1.83;;
7529;SDS011;3806;52.270;10.544;2023-04-25T07:31:25;6.05;;;1.60;;
7529;SDS011;3806;52.270;10.544;2023-04-25T07:33:51;5.72;;;2.22;;
7529;SDS011;3806;52.270;10.544;2023-04-25T07:36:17;7.15;;;1.92;;
7529;SDS011;3806;52.270;10.544;2023-04-25T07:38:42;8.10;;;1.55;;
7529;SDS011;3806;52.270;10.544;2023-04-25T07:41:08;3.55;;;1.67;;
7529;SDS011;3806;52.270;10.544;2023-04-25T07:43:34;5.32;;;1.83;;
7529;SDS011;3806;52.270;10.544;2023-04-25T07:46:00;3.28;;;1.75;;
7529;SDS011;3806;52.270;10.544;2023-04-25T07:48:25;4.15;;;1.42;;
7529;SDS011;3806;52.270;10.544;2023-04-25T07:50:51;6.70;;;2.13;;
7529;SDS011;3806;52.270;10.544;2023-04-25T07:53:16;4.57;;;1.52;;
7529;SDS011;3806;52.270;10.544;2023-04-25T07:55:43;5.75;;;2.22;;
7529;SDS011;3806;52.270;10.544;2023-04-25T07:58:08;7.05;;;1.67;;
7529;SDS011;3806;52.270;10.544;2023-04-25T08:00:35;6.07;;;2.75;;
7529;SDS011;3806;52.270;10.544;2023-04-25T08:03:01;4.88;;;1.85;;
7529;SDS011;3806;52.270;10.544;2023-04-25T08:05:27;6.22;;;1.67;;
7529;SDS011;3806;52.270;10.544;2023-04-25T08:07:53;7.35;;;2.13;;
7529;SDS011;3806;52.270;10.544;2023-04-25T08:10:18;4.88;;;1.83;;
7529;SDS011;3806;52.270;10.544;2023-04-25T08:12:44;5.40;;;2.05;;
7529;SDS011;3806;52.270;10.544;2023-04-25T08:15:10;8.02;;;1.98;;
7529;SDS011;3806;52.270;10.544;2023-04-25T08:17:35;4.97;;;1.70;;
7529;SDS011;3806;52.270;10.544;2023-04-25T08:20:01;9.02;;;2.17;;
7529;SDS011;3806;52.270;10.544;2023-04-25T08:22:30;5.30;;;1.67;;
7529;SDS011;3806;52.270;10.544;2023-04-25T08:24:55;7.35;;;2.47;;
7529;SDS011;3806;52.270;10.544;2023-04-25T08:27:21;5.28;;;1.45;;
7529;SDS011;3806;52.270;10.544;2023-04-25T08:29:46;8.27;;;2.28;;
7529;SDS011;3806;52.270;10.544;2023-04-25T08:32:12;4.72;;;1.67;;
7529;SDS011;3806;52.270;10.544;2023-04-25T08:34:38;7.05;;;2.20;;
7529;SDS011;3806;52.270;10.544;2023-04-25T08:37:07;6.35;;;1.83;;
7529;SDS011;3806;52.270;10.544;2023-04-25T08:39:33;7.03;;;1.60;;
7529;SDS011;3806;52.270;10.544;2023-04-25T08:41:58;5.57;;;1.88;;
7529;SDS011;3806;52.270;10.544;2023-04-25T08:44:26;7.25;;;2.35;;
7529;SDS011;3806;52.270;10.544;2023-04-25T08:46:52;8.13;;;2.80;;
7529;SDS011;3806;52.270;10.544;2023-04-25T08:49:20;8.45;;;2.28;;
7529;SDS011;3806;52.270;10.544;2023-04-25T08:51:46;7.78;;;2.10;;
7529;SDS011;3806;52.270;10.544;2023-04-25T08:54:12;5.18;;;2.10;;
7529;SDS011;3806;52.270;10.544;2023-04-25T08:56:39;8.60;;;3.20;;
7529;SDS011;3806;52.270;10.544;2023-04-25T08:59:06;5.70;;;2.25;;
7529;SDS011;3806;52.270;10.544;2023-04-25T09:01:33;7.60;;;1.83;;
7529;SDS011;3806;52.270;10.544;2023-04-25T09:04:00;3.75;;;1.70;;
7529;SDS011;3806;52.270;10.544;2023-04-25T09:06:26;5.50;;;1.83;;
7529;SDS011;3806;52.270;10.544;2023-04-25T09:08:53;4.28;;;1.30;;
7529;SDS011;3806;52.270;10.544;2023-04-25T09:11:19;4.90;;;1.88;;
7529;SDS011;3806;52.270;10.544;2023-04-25T09:13:44;7.72;;;1.77;;
7529;SDS011;3806;52.270;10.544;2023-04-25T09:16:10;7.00;;;1.98;;
7529;SDS011;3806;52.270;10.544;2023-04-25T09:18:36;5.30;;;1.85;;
7529;SDS011;3806;52.270;10.544;2023-04-25T09:21:08;3.72;;;1.35;;
7529;SDS011;3806;52.270;10.544;2023-04-25T09:23:39;13.93;;;3.60;;
7529;SDS011;3806;52.270;10.544;2023-04-25T09:26:16;2.47;;;1.40;;
7529;SDS011;3806;52.270;10.544;2023-04-25T09:28:45;4.38;;;1.17;;
7529;SDS011;3806;52.270;10.544;2023-04-25T09:31:20;2.42;;;1.33;;
7529;SDS011;3806;52.270;10.544;2023-04-25T09:33:49;4.47;;;1.38;;
7529;SDS011;3806;52.270;10.544;2023-04-25T09:36:15;2.33;;;1.13;;
7529;SDS011;3806;52.270;10.544;2023-04-25T09:38:41;6.30;;;1.48;;
7529;SDS011;3806;52.270;10.544;2023-04-25T09:41:08;6.35;;;1.45;;
7529;SDS011;3806;52.270;10.544;2023-04-25T09:43:35;3.15;;;1.48;;
7529;SDS011;3806;52.270;10.544;2023-04-25T09:46:01;2.95;;;1.20;;
7529;SDS011;3806;52.270;10.544;2023-04-25T09:48:27;7.05;;;1.83;;
7529;SDS011;3806;52.270;10.544;2023-04-25T09:51:14;3.55;;;0.95;;
7529;SDS011;3806;52.270;10.544;2023-04-25T09:53:40;5.53;;;1.80;;
7529;SDS011;3806;52.270;10.544;2023-04-25T09:56:08;4.72;;;1.73;;
7529;SDS011;3806;52.270;10.544;2023-04-25T09:58:35;5.13;;;1.50;;
7529;SDS011;3806;52.270;10.544;2023-04-25T10:01:03;5.53;;;1.75;;
7529;SDS011;3806;52.270;10.544;2023-04-25T10:03:31;6.15;;;1.63;;
7529;SDS011;3806;52.270;10.544;2023-04-25T10:06:02;3.88;;;1.58;;
7529;SDS011;3806;52.270;10.544;2023-04-25T10:08:33;3.42;;;1.25;;
7529;SDS011;3806;52.270;10.544;2023-04-25T10:11:01;4.22;;;1.55;;
7529;SDS011;3806;52.270;10.544;2023-04-25T10:13:32;5.45;;;1.42;;
7529;SDS011;3806;52.270;10.544;2023-04-25T10:15:59;3.78;;;1.70;;
7529;SDS011;3806;52.270;10.544;2023-04-25T10:18:26;6.38;;;1.88;;
7529;SDS011;3806;52.270;10.544;2023-04-25T10:20:55;4.00;;;1.38;;
7529;SDS011;3806;52.270;10.544;2023-04-25T10:23:23;6.65;;;2.22;;
7529;SDS011;3806;52.270;10.544;2023-04-25T10:25:52;3.67;;;1.50;;
7529;SDS011;3806;52.270;10.544;2023-04-25T10:28:18;5.30;;;2.03;;
7529;SDS011;3806;52.270;10.544;2023-04-25T10:31:00;4.68;;;1.58;;
7529;SDS011;3806;52.270;10.544;2023-04-25T10:33:34;5.72;;;1.95;;
7529;SDS011;3806;52.270;10.544;2023-04-25T10:36:13;7.57;;;1.65;;
7529;SDS011;3806;52.270;10.544;2023-04-25T10:38:43;7.43;;;1.90;;
7529;SDS011;3806;52.270;10.544;2023-04-25T10:41:09;6.35;;;1.48;;
7529;SDS011;3806;52.270;10.544;2023-04-25T10:46:24;7.88;;;1.23;;
7529;SDS011;3806;52.270;10.544;2023-04-25T10:48:54;3.95;;;1.55;;
7529;SDS011;3806;52.270;10.544;2023-04-25T10:51:27;2.33;;;1.00;;
7529;SDS011;3806;52.270;10.544;2023-04-25T10:56:26;2.22;;;0.88;;
7529;SDS011;3806;52.270;10.544;2023-04-25T10:59:10;8.48;;;1.55;;
7529;SDS011;3806;52.270;10.544;2023-04-25T11:01:41;2.70;;;1.38;;
7529;SDS011;3806;52.270;10.544;2023-04-25T11:04:21;4.10;;;1.83;;
7529;SDS011;3806;52.270;10.544;2023-04-25T11:09:35;4.72;;;1.58;;
7529;SDS011;3806;52.270;10.544;2023-04-25T11:12:03;5.60;;;1.55;;
7529;SDS011;3806;52.270;10.544;2023-04-25T11:14:29;2.13;;;1.55;;
7529;SDS011;3806;52.270;10.544;2023-04-25T11:16:55;8.38;;;1.60;;
7529;SDS011;3806;52.270;10.544;2023-04-25T11:19:23;4.47;;;1.20;;
7529;SDS011;3806;52.270;10.544;2023-04-25T11:21:49;2.95;;;1.10;;
7529;SDS011;3806;52.270;10.544;2023-04-25T11:24:17;3.95;;;1.25;;
7529;SDS011;3806;52.270;10.544;2023-04-25T11:26:44;2.05;;;1.10;;
7529;SDS011;3806;52.270;10.544;2023-04-25T11:29:13;3.80;;;1.30;;
7529;SDS011;3806;52.270;10.544;2023-04-25T11:31:38;5.40;;;1.63;;
7529;SDS011;3806;52.270;10.544;2023-04-25T11:34:08;3.75;;;1.42;;
7529;SDS011;3806;52.270;10.544;2023-04-25T11:36:33;4.30;;;1.02;;
7529;SDS011;3806;52.270;10.544;2023-04-25T11:38:59;3.60;;;1.10;;
7529;SDS011;3806;52.270;10.544;2023-04-25T11:41:25;4.97;;;1.02;;
7529;SDS011;3806;52.270;10.544;2023-04-25T11:43:51;2.33;;;1.35;;
7529;SDS011;3806;52.270;10.544;2023-04-25T11:46:17;2.65;;;0.90;;
7529;SDS011;3806;52.270;10.544;2023-04-25T11:48:44;4.15;;;1.30;;
7529;SDS011;3806;52.270;10.544;2023-04-25T11:51:11;3.22;;;1.65;;
7529;SDS011;3806;52.270;10.544;2023-04-25T11:53:38;3.85;;;1.30;;
7529;SDS011;3806;52.270;10.544;2023-04-25T11:56:09;5.97;;;1.80;;
7529;SDS011;3806;52.270;10.544;2023-04-25T11:58:55;5.00;;;1.58;;
7529;SDS011;3806;52.270;10.544;2023-04-25T12:01:26;4.20;;;1.70;;
7529;SDS011;3806;52.270;10.544;2023-04-25T12:03:56;3.22;;;1.13;;
7529;SDS011;3806;52.270;10.544;2023-04-25T12:06:25;5.82;;;1.35;;
7529;SDS011;3806;52.270;10.544;2023-04-25T12:08:58;2.78;;;1.17;;
7529;SDS011;3806;52.270;10.544;2023-04-25T12:11:32;5.43;;;1.50;;
7529;SDS011;3806;52.270;10.544;2023-04-25T12:14:05;3.92;;;1.42;;
7529;SDS011;3806;52.270;10.544;2023-04-25T12:16:40;5.65;;;1.30;;
7529;SDS011;3806;52.270;10.544;2023-04-25T12:19:13;3.03;;;0.98;;
7529;SDS011;3806;52.270;10.544;2023-04-25T12:21:39;3.78;;;0.77;;
7529;SDS011;3806;52.270;10.544;2023-04-25T12:26:52;2.67;;;1.10;;
7529;SDS011;3806;52.270;10.544;2023-04-25T12:29:23;2.40;;;1.20;;
7529;SDS011;3806;52.270;10.544;2023-04-25T12:31:50;1.60;;;0.90;;
7529;SDS011;3806;52.270;10.544;2023-04-25T12:34:17;6.88;;;1.10;;
7529;SDS011;3806;52.270;10.544;2023-04-25T12:36:43;4.95;;;1.10;;
7529;SDS011;3806;52.270;10.544;2023-04-25T12:39:13;4.22;;;1.65;;
7529;SDS011;3806;52.270;10.544;2023-04-25T12:41:43;2.75;;;1.00;;
7529;SDS011;3806;52.270;10.544;2023-04-25T12:44:09;3.47;;;1.02;;
7529;SDS011;3806;52.270;10.544;2023-04-25T12:46:35;3.53;;;1.10;;
7529;SDS011;3806;52.270;10.544;2023-04-25T12:49:01;2.40;;;1.20;;
7529;SDS011;3806;52.270;10.544;2023-04-25T12:51:28;4.97;;;0.93;;
7529;SDS011;3806;52.270;10.544;2023-04-25T12:53:54;3.22;;;0.98;;
7529;SDS011;3806;52.270;10.544;2023-04-25T12:56:19;2.58;;;1.13;;
7529;SDS011;3806;52.270;10.544;2023-04-25T12:58:45;2.33;;;0.85;;
7529;SDS011;3806;52.270;10.544;2023-04-25T13:01:11;3.90;;;1.00;;
7529;SDS011;3806;52.270;10.544;2023-04-25T13:03:38;0.73;;;0.70;;
7529;SDS011;3806;52.270;10.544;2023-04-25T13:06:04;3.13;;;0.85;;
7529;SDS011;3806;52.270;10.544;2023-04-25T13:08:30;3.45;;;0.88;;
7529;SDS011;3806;52.270;10.544;2023-04-25T13:10:56;4.05;;;1.27;;
7529;SDS011;3806;52.270;10.544;2023-04-25T13:13:21;5.50;;;1.30;;
7529;SDS011;3806;52.270;10.544;2023-04-25T13:15:47;1.35;;;0.90;;
7529;SDS011;3806;52.270;10.544;2023-04-25T13:18:13;3.38;;;1.00;;
7529;SDS011;3806;52.270;10.544;2023-04-25T13:20:38;4.30;;;1.08;;
7529;SDS011;3806;52.270;10.544;2023-04-25T13:23:04;2.67;;;1.20;;
7529;SDS011;3806;52.270;10.544;2023-04-25T13:25:29;1.20;;;0.93;;
7529;SDS011;3806;52.270;10.544;2023-04-25T13:27:55;1.92;;;1.05;;
7529;SDS011;3806;52.270;10.544;2023-04-25T13:30:20;1.17;;;0.73;;
7529;SDS011;3806;52.270;10.544;2023-04-25T13:32:46;2.15;;;0.93;;
7529;SDS011;3806;52.270;10.544;2023-04-25T13:35:12;2.33;;;1.00;;
7529;SDS011;3806;52.270;10.544;2023-04-25T13:37:38;4.72;;;2.05;;
7529;SDS011;3806;52.270;10.544;2023-04-25T13:40:05;3.60;;;1.42;;
7529;SDS011;3806;52.270;10.544;2023-04-25T13:42:34;4.93;;;1.10;;
7529;SDS011;3806;52.270;10.544;2023-04-25T13:45:00;3.17;;;1.00;;
7529;SDS011;3806;52.270;10.544;2023-04-25T13:47:26;3.72;;;0.95;;
7529;SDS011;3806;52.270;10.544;2023-04-25T13:49:52;2.10;;;0.80;;
7529;SDS011;3806;52.270;10.544;2023-04-25T13:52:18;1.23;;;0.68;;
7529;SDS011;3806;52.270;10.544;2023-04-25T13:54:43;2.30;;;0.88;;
7529;SDS011;3806;52.270;10.544;2023-04-25T13:57:09;1.00;;;0.50;;
7529;SDS011;3806;52.270;10.544;2023-04-25T13:59:36;3.17;;;0.65;;
7529;SDS011;3806;52.270;10.544;2023-04-25T14:02:01;5.57;;;0.88;;
7529;SDS011;3806;52.270;10.544;2023-04-25T14:04:27;2.17;;;1.33;;
7529;SDS011;3806;52.270;10.544;2023-04-25T14:06:53;4.18;;;0.88;;
7529;SDS011;3806;52.270;10.544;2023-04-25T14:09:19;1.27;;;0.43;;
7529;SDS011;3806;52.270;10.544;2023-04-25T14:11:47;2.30;;;0.73;;
7529;SDS011;3806;52.270;10.544;2023-04-25T14:14:12;2.95;;;0.80;;
7529;SDS011;3806;52.270;10.544;2023-04-25T14:16:41;2.78;;;0.70;;
7529;SDS011;3806;52.270;10.544;2023-04-25T14:19:06;2.22;;;0.90;;
7529;SDS011;3806;52.270;10.544;2023-04-25T14:21:32;2.63;;;0.88;;
7529;SDS011;3806;52.270;10.544;2023-04-25T14:23:57;2.78;;;1.15;;
7529;SDS011;3806;52.270;10.544;2023-04-25T14:26:23;2.08;;;0.82;;
7529;SDS011;3806;52.270;10.544;2023-04-25T14:28:49;4.70;;;1.13;;
7529;SDS011;3806;52.270;10.544;2023-04-25T14:31:15;5.00;;;1.33;;
7529;SDS011;3806;52.270;10.544;2023-04-25T14:33:41;2.22;;;0.80;;
7529;SDS011;3806;52.270;10.544;2023-04-25T14:36:08;2.10;;;1.05;;
7529;SDS011;3806;52.270;10.544;2023-04-25T14:38:33;3.47;;;0.82;;
7529;SDS011;3806;52.270;10.544;2023-04-25T14:40:59;3.45;;;1.17;;
7529;SDS011;3806;52.270;10.544;2023-04-25T14:43:25;3.17;;;1.02;;
7529;SDS011;3806;52.270;10.544;2023-04-25T14:45:50;3.92;;;1.30;;
7529;SDS011;3806;52.270;10.544;2023-04-25T14:48:17;1.73;;;1.00;;
7529;SDS011;3806;52.270;10.544;2023-04-25T14:50:44;4.93;;;1.23;;
7529;SDS011;3806;52.270;10.544;2023-04-25T14:53:10;4.93;;;1.40;;
7529;SDS011;3806;52.270;10.544;2023-04-25T14:55:36;8.50;;;1.30;;
7529;SDS011;3806;52.270;10.544;2023-04-25T14:58:01;7.38;;;1.20;;
7529;SDS011;3806;52.270;10.544;2023-04-25T15:00:27;2.97;;;1.17;;
7529;SDS011;3806;52.270;10.544;2023-04-25T15:02:52;2.22;;;1.20;;
7529;SDS011;3806;52.270;10.544;2023-04-25T15:05:18;3.47;;;1.73;;
7529;SDS011;3806;52.270;10.544;2023-04-25T15:07:44;4.40;;;1.00;;